sensor_id;sensor_type;location;lat;lon;timestamp;pressure;altitude;pressure_sealevel;temperature;humidity
60319;BME280;46163;52.306;5.634;2022-07-29T00:01:06;101716.44;;;21.33;54.08
60319;BME280;46163;52.306;5.634;2022-07-29T00:03:31;101722.09;;;21.31;54.22
60319;BME280;46163;52.306;5.634;2022-07-29T00:05:57;101726.38;;;21.27;54.06
60319;BME280;46163;52.306;5.634;2022-07-29T00:08:22;101722.09;;;21.31;54.27
60319;BME280;46163;52.306;5.634;2022-07-29T00:10:48;101716.13;;;21.29;54.41
60319;BME280;46163;52.306;5.634;2022-07-29T00:13:13;101717.19;;;21.28;54.09
60319;BME280;46163;52.306;5.634;2022-07-29T00:15:39;101714.47;;;21.28;54.52
60319;BME280;46163;52.306;5.634;2022-07-29T00:18:04;101710.13;;;21.27;54.43
60319;BME280;46163;52.306;5.634;2022-07-29T00:20:30;101712.84;;;21.27;54.46
60319;BME280;46163;52.306;5.634;2022-07-29T00:22:56;101703.03;;;21.26;54.36
60319;BME280;46163;52.306;5.634;2022-07-29T00:25:22;101700.59;;;21.25;54.39
60319;BME280;46163;52.306;5.634;2022-07-29T00:27:47;101703.31;;;21.25;54.19
60319;BME280;46163;52.306;5.634;2022-07-29T00:30:13;101693.53;;;21.24;54.14
60319;BME280;46163;52.306;5.634;2022-07-29T00:32:38;101688.38;;;21.22;54.52
60319;BME280;46163;52.306;5.634;2022-07-29T00:35:05;101688.88;;;21.19;54.23
60319;BME280;46163;52.306;5.634;2022-07-29T00:37:49;101690.28;;;21.22;54.10
60319;BME280;46163;52.306;5.634;2022-07-29T00:40:15;101691.34;;;21.21;54.42
60319;BME280;46163;52.306;5.634;2022-07-29T00:42:48;101689.47;;;21.21;54.48
60319;BME280;46163;52.306;5.634;2022-07-29T00:45:15;101683.47;;;21.19;54.53
60319;BME280;46163;52.306;5.634;2022-07-29T00:47:41;101681.56;;;21.20;54.34
60319;BME280;46163;52.306;5.634;2022-07-29T00:50:08;101678.84;;;21.20;54.26
60319;BME280;46163;52.306;5.634;2022-07-29T00:52:39;101666.41;;;21.18;54.28
60319;BME280;46163;52.306;5.634;2022-07-29T00:55:08;101667.47;;;21.17;54.06
60319;BME280;46163;52.306;5.634;2022-07-29T00:57:35;101674.78;;;21.17;54.24
60319;BME280;46163;52.306;5.634;2022-07-29T01:00:02;101665.53;;;21.13;54.47
60319;BME280;46163;52.306;5.634;2022-07-29T01:02:28;101664.47;;;21.14;54.20
60319;BME280;46163;52.306;5.634;2022-07-29T01:04:53;101658.22;;;21.13;54.23
60319;BME280;46163;52.306;5.634;2022-07-29T01:07:20;101665.53;;;21.13;54.24
60319;BME280;46163;52.306;5.634;2022-07-29T01:09:46;101657.41;;;21.13;54.29
60319;BME280;46163;52.306;5.634;2022-07-29T01:12:19;101657.41;;;21.13;54.58
60319;BME280;46163;52.306;5.634;2022-07-29T01:14:47;101660.38;;;21.11;54.66
60319;BME280;46163;52.306;5.634;2022-07-29T01:17:21;101648.41;;;21.07;54.36
60319;BME280;46163;52.306;5.634;2022-07-29T01:19:58;101650.84;;;21.09;54.08
60319;BME280;46163;52.306;5.634;2022-07-29T01:22:31;101645.44;;;21.09;54.43
60319;BME280;46163;52.306;5.634;2022-07-29T01:28:17;101639.47;;;21.07;54.47
60319;BME280;46163;52.306;5.634;2022-07-29T01:30:49;101642.16;;;21.07;54.78
60319;BME280;46163;52.306;5.634;2022-07-29T01:33:18;101641.34;;;21.06;54.49
60319;BME280;46163;52.306;5.634;2022-07-29T01:36:09;101635.94;;;21.06;54.84
60319;BME280;46163;52.306;5.634;2022-07-29T01:38:37;101639.16;;;21.03;54.50
60319;BME280;46163;52.306;5.634;2022-07-29T01:41:13;101643.50;;;21.04;54.34
60319;BME280;46163;52.306;5.634;2022-07-29T01:43:53;101635.63;;;21.03;54.69
60319;BME280;46163;52.306;5.634;2022-07-29T01:46:28;101634.56;;;21.04;54.80
60319;BME280;46163;52.306;5.634;2022-07-29T01:48:58;101628.81;;;21.00;54.63
60319;BME280;46163;52.306;5.634;2022-07-29T01:51:33;101637.75;;;21.01;54.52
60319;BME280;46163;52.306;5.634;2022-07-29T01:54:13;101634.22;;;21.00;54.75
60319;BME280;46163;52.306;5.634;2022-07-29T01:56:40;101629.06;;;20.99;54.75
60319;BME280;46163;52.306;5.634;2022-07-29T01:59:08;101628.25;;;20.98;54.66
60319;BME280;46163;52.306;5.634;2022-07-29T02:01:36;101624.72;;;20.98;54.83
60319;BME280;46163;52.306;5.634;2022-07-29T02:04:03;101632.03;;;20.97;54.67
60319;BME280;46163;52.306;5.634;2022-07-29T02:06:32;101627.94;;;20.95;54.78
60319;BME280;46163;52.306;5.634;2022-07-29T02:08:59;101626.06;;;20.95;54.57
60319;BME280;46163;52.306;5.634;2022-07-29T02:11:25;101622.53;;;20.95;54.77
60319;BME280;46163;52.306;5.634;2022-07-29T02:13:52;101620.66;;;20.95;54.86
60319;BME280;46163;52.306;5.634;2022-07-29T02:16:21;101630.88;;;20.93;54.78
60319;BME280;46163;52.306;5.634;2022-07-29T02:18:49;101623.53;;;20.88;54.80
60319;BME280;46163;52.306;5.634;2022-07-29T02:21:21;101631.13;;;20.92;54.75
60319;BME280;46163;52.306;5.634;2022-07-29T02:23:48;101620.44;;;20.80;54.71
60319;BME280;46163;52.306;5.634;2022-07-29T02:26:17;101633.84;;;20.92;54.74
60319;BME280;46163;52.306;5.634;2022-07-29T02:28:43;101607.16;;;20.78;54.88
60319;BME280;46163;52.306;5.634;2022-07-29T02:31:10;101635.97;;;20.89;54.77
60319;BME280;46163;52.306;5.634;2022-07-29T02:33:37;101638.69;;;20.89;54.97
60319;BME280;46163;52.306;5.634;2022-07-29T02:36:06;101637.06;;;20.88;54.64
60319;BME280;46163;52.306;5.634;2022-07-29T02:38:32;101640.84;;;20.87;55.03
60319;BME280;46163;52.306;5.634;2022-07-29T02:41:19;101629.13;;;20.82;54.71
60319;BME280;46163;52.306;5.634;2022-07-29T02:43:47;101632.16;;;20.85;54.96
60319;BME280;46163;52.306;5.634;2022-07-29T02:46:18;101631.34;;;20.85;54.86
60319;BME280;46163;52.306;5.634;2022-07-29T02:48:56;101616.84;;;20.74;54.97
60319;BME280;46163;52.306;5.634;2022-07-29T02:51:25;101621.00;;;20.82;54.85
60319;BME280;46163;52.306;5.634;2022-07-29T02:53:54;101621.25;;;20.80;54.88
60319;BME280;46163;52.306;5.634;2022-07-29T02:56:25;101610.59;;;20.74;54.83
60319;BME280;46163;52.306;5.634;2022-07-29T02:59:02;101620.44;;;20.80;54.88
60319;BME280;46163;52.306;5.634;2022-07-29T03:01:31;101620.44;;;20.80;54.96
60319;BME280;46163;52.306;5.634;2022-07-29T03:04:01;101620.13;;;20.76;54.94
60319;BME280;46163;52.306;5.634;2022-07-29T03:06:27;101617.66;;;20.75;54.89
60319;BME280;46163;52.306;5.634;2022-07-29T03:08:54;101623.41;;;20.78;54.83
60319;BME280;46163;52.306;5.634;2022-07-29T03:11:20;101625.53;;;20.76;54.89
60319;BME280;46163;52.306;5.634;2022-07-29T03:13:47;101627.16;;;20.77;54.88
60319;BME280;46163;52.306;5.634;2022-07-29T03:16:13;101625.53;;;20.76;55.24
60319;BME280;46163;52.306;5.634;2022-07-29T03:18:39;101625.75;;;20.75;54.80
60319;BME280;46163;52.306;5.634;2022-07-29T03:21:05;101612.91;;;20.65;55.11
60319;BME280;46163;52.306;5.634;2022-07-29T03:23:31;101621.44;;;20.74;55.18
60319;BME280;46163;52.306;5.634;2022-07-29T03:25:56;101613.56;;;20.72;54.80
60319;BME280;46163;52.306;5.634;2022-07-29T03:28:22;101619.78;;;20.73;54.85
60319;BME280;46163;52.306;5.634;2022-07-29T03:30:48;101612.75;;;20.72;55.17
60319;BME280;46163;52.306;5.634;2022-07-29T03:33:15;101612.75;;;20.72;55.14
60319;BME280;46163;52.306;5.634;2022-07-29T03:35:41;101613.00;;;20.70;55.04
60319;BME280;46163;52.306;5.634;2022-07-29T03:38:06;101608.91;;;20.68;55.24
60319;BME280;46163;52.306;5.634;2022-07-29T03:40:40;101624.91;;;20.69;55.12
60319;BME280;46163;52.306;5.634;2022-07-29T03:43:08;101612.44;;;20.68;55.10
60319;BME280;46163;52.306;5.634;2022-07-29T03:45:35;101607.03;;;20.68;55.05
60319;BME280;46163;52.306;5.634;2022-07-29T03:48:13;101609.97;;;20.67;55.19
60319;BME280;46163;52.306;5.634;2022-07-29T03:50:40;101612.66;;;20.67;55.21
60319;BME280;46163;52.306;5.634;2022-07-29T03:53:05;101609.41;;;20.65;55.00
60319;BME280;46163;52.306;5.634;2022-07-29T03:55:36;101608.84;;;20.63;55.20
60319;BME280;46163;52.306;5.634;2022-07-29T03:58:02;101610.22;;;20.65;55.03
60319;BME280;46163;52.306;5.634;2022-07-29T04:00:28;101600.97;;;20.61;55.00
60319;BME280;46163;52.306;5.634;2022-07-29T04:02:56;101606.13;;;20.63;55.28
60319;BME280;46163;52.306;5.634;2022-07-29T04:05:21;101608.03;;;20.62;55.27
60319;BME280;46163;52.306;5.634;2022-07-29T04:07:47;101603.94;;;20.59;55.00
60319;BME280;46163;52.306;5.634;2022-07-29T04:10:14;101602.59;;;20.62;55.14
60319;BME280;46163;52.306;5.634;2022-07-29T04:12:41;101606.38;;;20.61;55.39
60319;BME280;46163;52.306;5.634;2022-07-29T04:15:07;101608.28;;;20.60;55.28
60319;BME280;46163;52.306;5.634;2022-07-29T04:17:32;101598.19;;;20.56;55.22
60319;BME280;46163;52.306;5.634;2022-07-29T04:19:58;101602.28;;;20.58;55.09
60319;BME280;46163;52.306;5.634;2022-07-29T04:22:23;101601.44;;;20.58;55.33
60319;BME280;46163;52.306;5.634;2022-07-29T04:24:49;101602.28;;;20.58;55.04
60319;BME280;46163;52.306;5.634;2022-07-29T04:27:14;101607.69;;;20.58;55.05
60319;BME280;46163;52.306;5.634;2022-07-29T04:29:40;101609.56;;;20.58;55.23
60319;BME280;46163;52.306;5.634;2022-07-29T04:32:05;101602.47;;;20.52;55.15
60319;BME280;46163;52.306;5.634;2022-07-29T04:34:31;101604.41;;;20.56;55.22
60319;BME280;46163;52.306;5.634;2022-07-29T04:36:56;101606.28;;;20.56;55.30
60319;BME280;46163;52.306;5.634;2022-07-29T04:39:23;101600.88;;;20.56;55.26
60319;BME280;46163;52.306;5.634;2022-07-29T04:41:49;101597.63;;;20.54;55.00
60319;BME280;46163;52.306;5.634;2022-07-29T04:44:15;101596.56;;;20.55;54.91
60319;BME280;46163;52.306;5.634;2022-07-29T04:46:40;101600.06;;;20.55;54.87
60319;BME280;46163;52.306;5.634;2022-07-29T04:49:06;101583.72;;;20.45;55.13
60319;BME280;46163;52.306;5.634;2022-07-29T04:51:31;101589.69;;;20.47;55.18
60319;BME280;46163;52.306;5.634;2022-07-29T04:53:57;101596.00;;;20.53;55.31
60319;BME280;46163;52.306;5.634;2022-07-29T04:56:22;101596.81;;;20.53;55.09
60319;BME280;46163;52.306;5.634;2022-07-29T04:58:48;101597.06;;;20.52;55.14
60319;BME280;46163;52.306;5.634;2022-07-29T05:01:14;101594.34;;;20.52;55.38
60319;BME280;46163;52.306;5.634;2022-07-29T05:03:40;101593.28;;;20.53;55.20
60319;BME280;46163;52.306;5.634;2022-07-29T05:06:06;101591.91;;;20.50;55.57
60319;BME280;46163;52.306;5.634;2022-07-29T05:08:32;101588.13;;;20.51;54.98
60319;BME280;46163;52.306;5.634;2022-07-29T05:10:57;101587.53;;;20.49;55.16
60319;BME280;46163;52.306;5.634;2022-07-29T05:13:23;101592.13;;;20.49;55.11
60319;BME280;46163;52.306;5.634;2022-07-29T05:15:48;101584.84;;;20.49;55.16
60319;BME280;46163;52.306;5.634;2022-07-29T05:18:14;101585.91;;;20.48;55.27
60319;BME280;46163;52.306;5.634;2022-07-29T05:20:39;101586.72;;;20.49;55.34
60319;BME280;46163;52.306;5.634;2022-07-29T05:23:05;101590.50;;;20.48;55.08
60319;BME280;46163;52.306;5.634;2022-07-29T05:25:31;101586.66;;;20.44;55.14
60319;BME280;46163;52.306;5.634;2022-07-29T05:27:57;101602.13;;;20.48;55.21
60319;BME280;46163;52.306;5.634;2022-07-29T05:30:23;101599.38;;;20.43;55.30
60319;BME280;46163;52.306;5.634;2022-07-29T05:32:49;101595.81;;;20.43;55.39
60319;BME280;46163;52.306;5.634;2022-07-29T05:35:15;101596.97;;;20.47;55.23
60319;BME280;46163;52.306;5.634;2022-07-29T05:37:41;101604.25;;;20.46;55.42
60319;BME280;46163;52.306;5.634;2022-07-29T05:40:07;101601.81;;;20.45;55.35
60319;BME280;46163;52.306;5.634;2022-07-29T05:42:33;101607.22;;;20.45;55.26
60319;BME280;46163;52.306;5.634;2022-07-29T05:44:59;101612.63;;;20.45;55.25
60319;BME280;46163;52.306;5.634;2022-07-29T05:47:25;101618.03;;;20.45;55.08
60319;BME280;46163;52.306;5.634;2022-07-29T05:49:51;101611.56;;;20.46;55.31
60319;BME280;46163;52.306;5.634;2022-07-29T05:52:17;101624.50;;;20.44;55.41
60319;BME280;46163;52.306;5.634;2022-07-29T05:54:43;101636.16;;;20.44;55.23
60319;BME280;46163;52.306;5.634;2022-07-29T05:57:23;101628.03;;;20.44;55.23
60319;BME280;46163;52.306;5.634;2022-07-29T05:59:50;101627.22;;;20.44;55.39
60319;BME280;46163;52.306;5.634;2022-07-29T06:02:16;101614.75;;;20.43;55.34
60319;BME280;46163;52.306;5.634;2022-07-29T06:04:42;101609.34;;;20.43;55.09
60319;BME280;46163;52.306;5.634;2022-07-29T06:07:08;101603.91;;;20.43;55.33
60319;BME280;46163;52.306;5.634;2022-07-29T06:09:34;101614.75;;;20.43;55.33
60319;BME280;46163;52.306;5.634;2022-07-29T06:12:00;101612.88;;;20.43;55.26
60319;BME280;46163;52.306;5.634;2022-07-29T06:14:26;101605.00;;;20.42;55.27
60319;BME280;46163;52.306;5.634;2022-07-29T06:16:53;101609.34;;;20.43;55.24
60319;BME280;46163;52.306;5.634;2022-07-29T06:19:19;101616.63;;;20.42;55.17
60319;BME280;46163;52.306;5.634;2022-07-29T06:21:50;101616.63;;;20.42;55.20
60319;BME280;46163;52.306;5.634;2022-07-29T06:24:16;101620.38;;;20.41;55.39
60319;BME280;46163;52.306;5.634;2022-07-29T06:26:42;101628.25;;;20.43;55.09
60319;BME280;46163;52.306;5.634;2022-07-29T06:29:08;101628.25;;;20.43;55.07
60319;BME280;46163;52.306;5.634;2022-07-29T06:31:35;101636.38;;;20.43;55.45
60319;BME280;46163;52.306;5.634;2022-07-29T06:34:01;101646.38;;;20.42;55.26
60319;BME280;46163;52.306;5.634;2022-07-29T06:36:27;101654.47;;;20.42;55.20
60319;BME280;46163;52.306;5.634;2022-07-29T06:38:52;101660.47;;;20.44;55.17
60319;BME280;46163;52.306;5.634;2022-07-29T06:41:18;101658.84;;;20.43;55.29
60319;BME280;46163;52.306;5.634;2022-07-29T06:43:44;101658.00;;;20.43;55.62
60319;BME280;46163;52.306;5.634;2022-07-29T06:46:15;101650.72;;;20.43;55.31
60319;BME280;46163;52.306;5.634;2022-07-29T06:48:43;101654.25;;;20.44;55.20
60319;BME280;46163;52.306;5.634;2022-07-29T06:51:10;101655.06;;;20.44;55.13
60319;BME280;46163;52.306;5.634;2022-07-29T06:53:37;101659.16;;;20.47;55.12
60319;BME280;46163;52.306;5.634;2022-07-29T06:56:04;101653.75;;;20.47;55.12
60319;BME280;46163;52.306;5.634;2022-07-29T06:58:30;101651.88;;;20.47;54.89
60319;BME280;46163;52.306;5.634;2022-07-29T07:00:57;101659.97;;;20.47;55.10
60319;BME280;46163;52.306;5.634;2022-07-29T07:03:23;101664.06;;;20.50;55.04
60319;BME280;46163;52.306;5.634;2022-07-29T07:05:51;101653.84;;;20.52;54.80
60319;BME280;46163;52.306;5.634;2022-07-29T07:08:17;101657.84;;;20.49;54.75
60319;BME280;46163;52.306;5.634;2022-07-29T07:10:43;101664.16;;;20.55;54.75
60319;BME280;46163;52.306;5.634;2022-07-29T07:13:09;101654.09;;;20.50;54.80
60319;BME280;46163;52.306;5.634;2022-07-29T07:15:36;101666.59;;;20.56;54.70
60319;BME280;46163;52.306;5.634;2022-07-29T07:18:02;101662.63;;;20.59;54.82
60319;BME280;46163;52.306;5.634;2022-07-29T07:20:27;101653.44;;;20.60;54.51
60319;BME280;46163;52.306;5.634;2022-07-29T07:22:53;101655.38;;;20.65;54.49
60319;BME280;46163;52.306;5.634;2022-07-29T07:25:18;101647.59;;;20.68;54.58
60319;BME280;46163;52.306;5.634;2022-07-29T07:27:44;101639.50;;;20.68;54.55
60319;BME280;46163;52.306;5.634;2022-07-29T07:30:09;101644.94;;;20.73;54.17
60319;BME280;46163;52.306;5.634;2022-07-29T07:32:35;101647.19;;;20.76;54.09
60319;BME280;46163;52.306;5.634;2022-07-29T07:35:01;101649.88;;;20.76;54.16
60319;BME280;46163;52.306;5.634;2022-07-29T07:37:27;101659.69;;;20.82;54.26
60319;BME280;46163;52.306;5.634;2022-07-29T07:39:53;101648.63;;;20.84;54.18
60319;BME280;46163;52.306;5.634;2022-07-29T07:42:19;101646.00;;;20.89;53.94
60319;BME280;46163;52.306;5.634;2022-07-29T07:44:44;101643.03;;;20.91;53.68
60319;BME280;46163;52.306;5.634;2022-07-29T07:47:14;101644.50;;;20.98;53.62
60319;BME280;46163;52.306;5.634;2022-07-29T07:49:40;101642.09;;;21.02;53.82
60319;BME280;46163;52.306;5.634;2022-07-29T07:52:05;101641.03;;;21.03;53.89
60319;BME280;46163;52.306;5.634;2022-07-29T07:54:31;101648.09;;;21.04;53.82
60319;BME280;46163;52.306;5.634;2022-07-29T07:56:57;101637.84;;;21.06;53.75
60319;BME280;46163;52.306;5.634;2022-07-29T07:59:22;101629.44;;;21.07;53.51
60319;BME280;46163;52.306;5.634;2022-07-29T08:01:49;101619.63;;;21.01;53.51
60319;BME280;46163;52.306;5.634;2022-07-29T08:04:15;101639.53;;;21.12;53.26
60319;BME280;46163;52.306;5.634;2022-07-29T08:06:40;101610.69;;;21.01;53.47
60319;BME280;46163;52.306;5.634;2022-07-29T08:09:06;101630.09;;;21.14;53.59
60319;BME280;46163;52.306;5.634;2022-07-29T08:11:31;101629.03;;;21.15;53.47
60319;BME280;46163;52.306;5.634;2022-07-29T08:13:57;101622.53;;;21.16;53.12
60319;BME280;46163;52.306;5.634;2022-07-29T08:16:23;101610.00;;;21.10;53.27
60319;BME280;46163;52.306;5.634;2022-07-29T08:18:50;101629.91;;;21.21;53.28
60319;BME280;46163;52.306;5.634;2022-07-29T08:21:16;101623.41;;;21.22;53.31
60319;BME280;46163;52.306;5.634;2022-07-29T08:23:44;101626.69;;;21.24;53.13
60319;BME280;46163;52.306;5.634;2022-07-29T08:26:16;101631.84;;;21.26;53.17
60319;BME280;46163;52.306;5.634;2022-07-29T08:28:42;101626.19;;;21.27;52.79
60319;BME280;46163;52.306;5.634;2022-07-29T08:31:14;101625.13;;;21.28;52.89
60319;BME280;46163;52.306;5.634;2022-07-29T08:33:39;101624.09;;;21.29;52.77
60319;BME280;46163;52.306;5.634;2022-07-29T08:36:05;101623.28;;;21.29;53.04
60319;BME280;46163;52.306;5.634;2022-07-29T08:38:32;101623.00;;;21.30;52.86
60319;BME280;46163;52.306;5.634;2022-07-29T08:41:00;101618.66;;;21.29;53.04
60319;BME280;46163;52.306;5.634;2022-07-29T08:43:25;101614.38;;;21.33;53.07
60319;BME280;46163;52.306;5.634;2022-07-29T08:45:51;101624.94;;;21.35;52.97
60319;BME280;46163;52.306;5.634;2022-07-29T08:48:21;101624.69;;;21.36;52.84
60319;BME280;46163;52.306;5.634;2022-07-29T08:50:52;101626.34;;;21.37;53.05
60319;BME280;46163;52.306;5.634;2022-07-29T08:53:21;101627.47;;;21.41;53.15
60319;BME280;46163;52.306;5.634;2022-07-29T08:55:48;101625.31;;;21.43;52.98
60319;BME280;46163;52.306;5.634;2022-07-29T08:58:16;101626.13;;;21.44;52.47
60319;BME280;46163;52.306;5.634;2022-07-29T09:00:44;101622.34;;;21.45;52.55
60319;BME280;46163;52.306;5.634;2022-07-29T09:03:15;101624.56;;;21.48;52.65
60319;BME280;46163;52.306;5.634;2022-07-29T09:05:45;101614.28;;;21.50;52.83
60319;BME280;46163;52.306;5.634;2022-07-29T09:08:12;101624.38;;;21.55;52.57
60319;BME280;46163;52.306;5.634;2022-07-29T09:10:38;101626.00;;;21.56;52.40
60319;BME280;46163;52.306;5.634;2022-07-29T09:13:04;101630.34;;;21.57;52.56
60319;BME280;46163;52.306;5.634;2022-07-29T09:15:30;101629.28;;;21.58;52.46
60319;BME280;46163;52.306;5.634;2022-07-29T09:17:55;101629.53;;;21.56;52.56
60319;BME280;46163;52.306;5.634;2022-07-29T09:20:23;101627.91;;;21.55;52.49
60319;BME280;46163;52.306;5.634;2022-07-29T09:22:50;101638.47;;;21.57;52.80
60319;BME280;46163;52.306;5.634;2022-07-29T09:25:34;101634.13;;;21.56;52.61
60319;BME280;46163;52.306;5.634;2022-07-29T09:30:35;101628.66;;;21.51;52.49
60319;BME280;46163;52.306;5.634;2022-07-29T09:33:04;101630.53;;;21.50;52.54
60319;BME280;46163;52.306;5.634;2022-07-29T09:35:30;101657.16;;;21.58;52.49
60319;BME280;46163;52.306;5.634;2022-07-29T09:37:57;101645.00;;;21.61;52.60
60319;BME280;46163;52.306;5.634;2022-07-29T09:40:33;101647.22;;;21.64;52.40
60319;BME280;46163;52.306;5.634;2022-07-29T09:43:12;101643.44;;;21.65;52.43
60319;BME280;46163;52.306;5.634;2022-07-29T09:45:38;101642.41;;;21.71;52.14
60319;BME280;46163;52.306;5.634;2022-07-29T09:48:19;101636.47;;;21.74;52.36
60319;BME280;46163;52.306;5.634;2022-07-29T09:50:45;101640.56;;;21.77;52.09
60319;BME280;46163;52.306;5.634;2022-07-29T09:55:54;101635.44;;;21.80;52.29
60319;BME280;46163;52.306;5.634;2022-07-29T09:58:21;101639.28;;;21.84;52.05
60319;BME280;46163;52.306;5.634;2022-07-29T10:00:49;101643.63;;;21.85;52.29
60319;BME280;46163;52.306;5.634;2022-07-29T10:03:16;101629.47;;;21.78;51.97
60319;BME280;46163;52.306;5.634;2022-07-29T10:05:43;101646.63;;;21.89;52.04
60319;BME280;46163;52.306;5.634;2022-07-29T10:08:09;101647.22;;;21.91;51.70
60319;BME280;46163;52.306;5.634;2022-07-29T10:10:40;101636.88;;;21.88;51.77
60319;BME280;46163;52.306;5.634;2022-07-29T10:13:11;101638.00;;;21.92;51.93
60319;BME280;46163;52.306;5.634;2022-07-29T10:15:39;101642.09;;;21.94;51.83
60319;BME280;46163;52.306;5.634;2022-07-29T10:18:10;101632.06;;;21.95;51.68
60319;BME280;46163;52.306;5.634;2022-07-29T10:20:37;101637.22;;;21.96;51.83
60319;BME280;46163;52.306;5.634;2022-07-29T10:23:03;101634.84;;;22.00;52.03
60319;BME280;46163;52.306;5.634;2022-07-29T10:25:29;101631.84;;;22.01;51.80
60319;BME280;46163;52.306;5.634;2022-07-29T10:27:55;101627.00;;;22.04;51.79
60319;BME280;46163;52.306;5.634;2022-07-29T10:30:22;101632.97;;;22.06;51.90
60319;BME280;46163;52.306;5.634;2022-07-29T10:32:59;101618.59;;;22.05;51.63
60319;BME280;46163;52.306;5.634;2022-07-29T10:41:21;101623.78;;;22.07;51.83
60319;BME280;46163;52.306;5.634;2022-07-29T10:44:08;101631.69;;;22.08;51.75
60319;BME280;46163;52.306;5.634;2022-07-29T10:46:40;101632.50;;;22.09;51.52
60319;BME280;46163;52.306;5.634;2022-07-29T11:05:13;101648.75;;;22.09;51.95
60319;BME280;46163;52.306;5.634;2022-07-29T11:10:45;101648.75;;;22.09;51.92
60319;BME280;46163;52.306;5.634;2022-07-29T11:13:10;101646.88;;;22.09;51.52
60319;BME280;46163;52.306;5.634;2022-07-29T11:15:56;101640.63;;;22.09;51.74
60319;BME280;46163;52.306;5.634;2022-07-29T11:18:22;101649.31;;;22.11;51.97
60319;BME280;46163;52.306;5.634;2022-07-29T11:20:50;101650.41;;;22.10;51.65
60319;BME280;46163;52.306;5.634;2022-07-29T11:29:06;101646.59;;;22.11;51.49
60319;BME280;46163;52.306;5.634;2022-07-29T11:31:45;101647.69;;;22.10;51.65
60319;BME280;46163;52.306;5.634;2022-07-29T11:34:24;101645.78;;;22.10;51.58
60319;BME280;46163;52.306;5.634;2022-07-29T11:44:59;101640.38;;;22.10;51.91
60319;BME280;46163;52.306;5.634;2022-07-29T11:47:31;101640.09;;;22.12;51.97
60319;BME280;46163;52.306;5.634;2022-07-29T11:49:58;101640.09;;;22.12;51.62
60319;BME280;46163;52.306;5.634;2022-07-29T11:52:32;101638.22;;;22.12;52.06
60319;BME280;46163;52.306;5.634;2022-07-29T11:55:02;101637.72;;;22.15;51.85
60319;BME280;46163;52.306;5.634;2022-07-29T11:57:28;101635.56;;;22.17;51.78
60319;BME280;46163;52.306;5.634;2022-07-29T11:59:53;101629.31;;;22.17;52.09
60319;BME280;46163;52.306;5.634;2022-07-29T12:02:20;101638.28;;;22.22;51.70
60319;BME280;46163;52.306;5.634;2022-07-29T12:04:50;101629.59;;;22.20;51.37
60319;BME280;46163;52.306;5.634;2022-07-29T12:07:16;101635.59;;;22.22;51.97
60319;BME280;46163;52.306;5.634;2022-07-29T12:09:51;101628.25;;;22.23;51.79
60319;BME280;46163;52.306;5.634;2022-07-29T12:12:18;101638.91;;;22.29;51.84
60319;BME280;46163;52.306;5.634;2022-07-29T12:14:44;101634.00;;;22.26;51.78
60319;BME280;46163;52.306;5.634;2022-07-29T12:17:26;101635.09;;;22.31;51.33
60319;BME280;46163;52.306;5.634;2022-07-29T12:19:55;101635.91;;;22.31;51.55
60319;BME280;46163;52.306;5.634;2022-07-29T12:22:29;101633.78;;;22.33;51.62
60319;BME280;46163;52.306;5.634;2022-07-29T12:25:01;101624.03;;;22.37;51.27
60319;BME280;46163;52.306;5.634;2022-07-29T12:27:27;101633.28;;;22.41;51.54
60319;BME280;46163;52.306;5.634;2022-07-29T12:30:04;101634.94;;;22.42;51.60
60319;BME280;46163;52.306;5.634;2022-07-29T12:32:37;101631.69;;;22.45;51.27
60319;BME280;46163;52.306;5.634;2022-07-29T12:35:09;101627.34;;;22.44;51.40
60319;BME280;46163;52.306;5.634;2022-07-29T12:37:36;101628.44;;;22.43;51.53
60319;BME280;46163;52.306;5.634;2022-07-29T12:40:07;101626.28;;;22.45;51.55
60319;BME280;46163;52.306;5.634;2022-07-29T12:42:33;101630.88;;;22.45;51.19
60319;BME280;46163;52.306;5.634;2022-07-29T12:45:00;101625.19;;;22.46;51.26
60319;BME280;46163;52.306;5.634;2022-07-29T12:47:25;101631.44;;;22.47;51.54
60319;BME280;46163;52.306;5.634;2022-07-29T12:50:07;101618.41;;;22.44;51.63
60319;BME280;46163;52.306;5.634;2022-07-29T12:52:34;101623.84;;;22.49;51.40
60319;BME280;46163;52.306;5.634;2022-07-29T12:55:00;101627.13;;;22.51;51.16
60319;BME280;46163;52.306;5.634;2022-07-29T12:57:26;101612.75;;;22.50;51.11
60319;BME280;46163;52.306;5.634;2022-07-29T13:00:07;101614.41;;;22.56;51.51
60319;BME280;46163;52.306;5.634;2022-07-29T13:02:34;101621.22;;;22.59;51.40
60319;BME280;46163;52.306;5.634;2022-07-29T13:05:00;101610.66;;;22.63;50.95
60319;BME280;46163;52.306;5.634;2022-07-29T13:07:28;101616.06;;;22.63;51.40
60319;BME280;46163;52.306;5.634;2022-07-29T13:10:09;101619.06;;;22.66;50.82
60319;BME280;46163;52.306;5.634;2022-07-29T13:12:35;101619.13;;;22.71;50.57
60319;BME280;46163;52.306;5.634;2022-07-29T13:15:12;101616.13;;;22.73;50.81
60319;BME280;46163;52.306;5.634;2022-07-29T13:17:42;101611.25;;;22.75;51.09
60319;BME280;46163;52.306;5.634;2022-07-29T13:20:11;101607.22;;;22.77;51.12
60319;BME280;46163;52.306;5.634;2022-07-29T13:22:41;101608.03;;;22.78;50.85
60319;BME280;46163;52.306;5.634;2022-07-29T13:25:08;101612.38;;;22.84;50.87
60319;BME280;46163;52.306;5.634;2022-07-29T13:27:35;101611.91;;;22.87;50.85
60319;BME280;46163;52.306;5.634;2022-07-29T13:30:04;101608.66;;;22.90;50.88
60319;BME280;46163;52.306;5.634;2022-07-29T13:32:30;101614.63;;;22.92;50.92
60319;BME280;46163;52.306;5.634;2022-07-29T13:34:57;101608.69;;;22.95;50.75
60319;BME280;46163;52.306;5.634;2022-07-29T13:37:23;101612.75;;;22.98;50.38
60319;BME280;46163;52.306;5.634;2022-07-29T13:39:49;101614.94;;;23.01;50.66
60319;BME280;46163;52.306;5.634;2022-07-29T13:42:14;101604.66;;;23.03;50.69